sensor_id;sensor_type;location;lat;lon;timestamp;temperature;humidity
35746;DHT22;21870;42.812;74.628;2023-05-08T00:01:51;12.40;79.80
35746;DHT22;21870;42.812;74.628;2023-05-08T00:04:17;12.50;79.90
35746;DHT22;21870;42.812;74.628;2023-05-08T00:06:45;12.50;79.80
35746;DHT22;21870;42.812;74.628;2023-05-08T00:09:11;12.60;79.70
35746;DHT22;21870;42.812;74.628;2023-05-08T00:11:38;12.60;79.60
35746;DHT22;21870;42.812;74.628;2023-05-08T00:14:04;12.70;79.70
35746;DHT22;21870;42.812;74.628;2023-05-08T00:16:31;12.80;79.60
35746;DHT22;21870;42.812;74.628;2023-05-08T00:18:57;12.70;79.50
35746;DHT22;21870;42.812;74.628;2023-05-08T00:21:24;12.70;79.70
35746;DHT22;21870;42.812;74.628;2023-05-08T00:23:50;12.70;79.80
35746;DHT22;21870;42.812;74.628;2023-05-08T00:26:16;12.70;79.80
35746;DHT22;21870;42.812;74.628;2023-05-08T00:28:42;12.70;79.50
35746;DHT22;21870;42.812;74.628;2023-05-08T00:31:08;12.70;79.20
35746;DHT22;21870;42.812;74.628;2023-05-08T00:33:34;12.80;79.30
35746;DHT22;21870;42.812;74.628;2023-05-08T00:36:04;12.70;79.60
35746;DHT22;21870;42.812;74.628;2023-05-08T00:38:34;12.70;79.70
35746;DHT22;21870;42.812;74.628;2023-05-08T00:41:01;12.70;80.00
35746;DHT22;21870;42.812;74.628;2023-05-08T00:43:27;12.70;80.30
35746;DHT22;21870;42.812;74.628;2023-05-08T00:45:59;12.70;80.20
35746;DHT22;21870;42.812;74.628;2023-05-08T00:48:29;12.70;81.00
35746;DHT22;21870;42.812;74.628;2023-05-08T00:50:57;12.80;81.70
35746;DHT22;21870;42.812;74.628;2023-05-08T00:53:25;12.80;83.20
35746;DHT22;21870;42.812;74.628;2023-05-08T00:55:52;12.80;82.80
35746;DHT22;21870;42.812;74.628;2023-05-08T00:58:20;12.80;82.30
35746;DHT22;21870;42.812;74.628;2023-05-08T01:00:46;12.80;82.30
35746;DHT22;21870;42.812;74.628;2023-05-08T01:03:13;12.90;81.80
35746;DHT22;21870;42.812;74.628;2023-05-08T01:05:40;13.00;81.80
35746;DHT22;21870;42.812;74.628;2023-05-08T01:08:06;13.10;81.70
35746;DHT22;21870;42.812;74.628;2023-05-08T01:11:02;13.20;81.90
35746;DHT22;21870;42.812;74.628;2023-05-08T01:16:22;13.40;80.90
35746;DHT22;21870;42.812;74.628;2023-05-08T01:21:28;13.60;81.30
35746;DHT22;21870;42.812;74.628;2023-05-08T01:32:42;13.90;81.80
35746;DHT22;21870;42.812;74.628;2023-05-08T01:35:16;14.00;81.90
35746;DHT22;21870;42.812;74.628;2023-05-08T01:40:51;14.30;81.70
35746;DHT22;21870;42.812;74.628;2023-05-08T01:46:15;14.60;80.10
35746;DHT22;21870;42.812;74.628;2023-05-08T01:48:49;14.80;78.90
35746;DHT22;21870;42.812;74.628;2023-05-08T01:51:21;14.90;78.20
35746;DHT22;21870;42.812;74.628;2023-05-08T01:53:56;15.10;78.40
35746;DHT22;21870;42.812;74.628;2023-05-08T01:56:27;15.20;79.10
35746;DHT22;21870;42.812;74.628;2023-05-08T01:58:57;15.40;78.20
35746;DHT22;21870;42.812;74.628;2023-05-08T02:01:24;15.50;78.40
35746;DHT22;21870;42.812;74.628;2023-05-08T02:03:51;15.70;78.40
35746;DHT22;21870;42.812;74.628;2023-05-08T02:06:20;15.80;77.60
35746;DHT22;21870;42.812;74.628;2023-05-08T02:08:48;15.90;78.50
35746;DHT22;21870;42.812;74.628;2023-05-08T02:11:16;16.00;79.30
35746;DHT22;21870;42.812;74.628;2023-05-08T02:13:45;16.20;79.00
35746;DHT22;21870;42.812;74.628;2023-05-08T02:16:12;16.30;78.00
35746;DHT22;21870;42.812;74.628;2023-05-08T02:18:44;16.40;77.50
35746;DHT22;21870;42.812;74.628;2023-05-08T02:21:12;16.60;77.60
35746;DHT22;21870;42.812;74.628;2023-05-08T02:23:40;16.80;77.50
35746;DHT22;21870;42.812;74.628;2023-05-08T02:26:08;17.00;77.80
35746;DHT22;21870;42.812;74.628;2023-05-08T02:28:35;17.20;76.70
35746;DHT22;21870;42.812;74.628;2023-05-08T02:31:01;17.30;75.70
35746;DHT22;21870;42.812;74.628;2023-05-08T02:33:28;17.50;74.00
35746;DHT22;21870;42.812;74.628;2023-05-08T02:35:55;17.70;72.50
35746;DHT22;21870;42.812;74.628;2023-05-08T02:38:24;17.90;72.40
35746;DHT22;21870;42.812;74.628;2023-05-08T02:40:55;18.10;71.10
35746;DHT22;21870;42.812;74.628;2023-05-08T02:43:23;18.30;71.40
35746;DHT22;21870;42.812;74.628;2023-05-08T02:48:32;18.50;70.50
35746;DHT22;21870;42.812;74.628;2023-05-08T02:51:19;18.70;70.60
35746;DHT22;21870;42.812;74.628;2023-05-08T02:54:29;18.80;69.70
35746;DHT22;21870;42.812;74.628;2023-05-08T02:56:54;19.00;69.40
35746;DHT22;21870;42.812;74.628;2023-05-08T02:59:30;19.20;72.00
35746;DHT22;21870;42.812;74.628;2023-05-08T03:02:13;19.40;71.80
35746;DHT22;21870;42.812;74.628;2023-05-08T03:05:05;19.60;70.70
35746;DHT22;21870;42.812;74.628;2023-05-08T03:07:37;19.90;68.40
35746;DHT22;21870;42.812;74.628;2023-05-08T03:10:09;19.90;67.90
35746;DHT22;21870;42.812;74.628;2023-05-08T03:12:40;20.00;67.40
35746;DHT22;21870;42.812;74.628;2023-05-08T03:15:13;20.10;66.80
35746;DHT22;21870;42.812;74.628;2023-05-08T03:17:42;20.10;69.30
35746;DHT22;21870;42.812;74.628;2023-05-08T03:20:13;20.30;67.30
35746;DHT22;21870;42.812;74.628;2023-05-08T03:22:41;20.40;68.40
35746;DHT22;21870;42.812;74.628;2023-05-08T03:25:09;20.50;67.30
35746;DHT22;21870;42.812;74.628;2023-05-08T03:27:36;20.60;65.20
35746;DHT22;21870;42.812;74.628;2023-05-08T03:30:04;20.60;66.00
35746;DHT22;21870;42.812;74.628;2023-05-08T03:32:31;20.60;64.40
35746;DHT22;21870;42.812;74.628;2023-05-08T03:35:00;20.90;68.10
35746;DHT22;21870;42.812;74.628;2023-05-08T03:37:27;21.00;68.20
35746;DHT22;21870;42.812;74.628;2023-05-08T03:39:54;21.10;68.80
35746;DHT22;21870;42.812;74.628;2023-05-08T03:42:22;21.20;66.60
35746;DHT22;21870;42.812;74.628;2023-05-08T03:44:52;21.40;70.40
35746;DHT22;21870;42.812;74.628;2023-05-08T03:47:20;21.40;71.00
35746;DHT22;21870;42.812;74.628;2023-05-08T03:49:47;21.50;72.00
35746;DHT22;21870;42.812;74.628;2023-05-08T03:52:14;21.50;71.80
35746;DHT22;21870;42.812;74.628;2023-05-08T03:54:41;21.60;72.70
35746;DHT22;21870;42.812;74.628;2023-05-08T03:57:07;21.70;71.70
35746;DHT22;21870;42.812;74.628;2023-05-08T04:02:46;22.10;69.60
35746;DHT22;21870;42.812;74.628;2023-05-08T04:05:23;22.10;69.60
35746;DHT22;21870;42.812;74.628;2023-05-08T04:07:55;22.20;70.50
35746;DHT22;21870;42.812;74.628;2023-05-08T04:10:42;22.20;68.30
35746;DHT22;21870;42.812;74.628;2023-05-08T04:13:17;22.40;67.50
35746;DHT22;21870;42.812;74.628;2023-05-08T04:15:54;22.40;67.40
35746;DHT22;21870;42.812;74.628;2023-05-08T04:18:27;22.50;67.60
35746;DHT22;21870;42.812;74.628;2023-05-08T04:20:57;22.60;68.30
35746;DHT22;21870;42.812;74.628;2023-05-08T04:23:24;22.60;67.10
35746;DHT22;21870;42.812;74.628;2023-05-08T04:25:52;22.60;66.50
35746;DHT22;21870;42.812;74.628;2023-05-08T04:28:19;22.70;67.10
35746;DHT22;21870;42.812;74.628;2023-05-08T04:30:46;22.90;66.10
35746;DHT22;21870;42.812;74.628;2023-05-08T04:33:13;22.80;66.60
35746;DHT22;21870;42.812;74.628;2023-05-08T04:35:40;22.80;64.50
35746;DHT22;21870;42.812;74.628;2023-05-08T04:38:06;22.80;64.80
35746;DHT22;21870;42.812;74.628;2023-05-08T04:40:32;22.90;65.60
35746;DHT22;21870;42.812;74.628;2023-05-08T04:42:58;23.20;66.70
35746;DHT22;21870;42.812;74.628;2023-05-08T04:45:24;23.20;64.50
35746;DHT22;21870;42.812;74.628;2023-05-08T04:47:50;23.40;65.60
35746;DHT22;21870;42.812;74.628;2023-05-08T04:50:16;23.30;64.70
35746;DHT22;21870;42.812;74.628;2023-05-08T04:52:42;23.30;65.40
35746;DHT22;21870;42.812;74.628;2023-05-08T04:55:08;23.60;64.60
35746;DHT22;21870;42.812;74.628;2023-05-08T04:57:35;23.60;63.50
35746;DHT22;21870;42.812;74.628;2023-05-08T05:00:01;23.50;64.00
35746;DHT22;21870;42.812;74.628;2023-05-08T05:02:27;23.70;64.40
35746;DHT22;21870;42.812;74.628;2023-05-08T05:04:53;23.70;65.00
35746;DHT22;21870;42.812;74.628;2023-05-08T05:07:23;23.90;64.40
35746;DHT22;21870;42.812;74.628;2023-05-08T05:09:49;24.00;65.50
35746;DHT22;21870;42.812;74.628;2023-05-08T05:12:15;24.30;64.40
35746;DHT22;21870;42.812;74.628;2023-05-08T05:14:41;24.20;64.10
35746;DHT22;21870;42.812;74.628;2023-05-08T05:17:07;24.40;63.20
35746;DHT22;21870;42.812;74.628;2023-05-08T05:19:33;24.40;62.40
35746;DHT22;21870;42.812;74.628;2023-05-08T05:21:59;24.40;63.10
35746;DHT22;21870;42.812;74.628;2023-05-08T05:24:25;24.40;61.80
35746;DHT22;21870;42.812;74.628;2023-05-08T05:26:51;24.50;64.10
35746;DHT22;21870;42.812;74.628;2023-05-08T05:29:17;24.70;63.60
35746;DHT22;21870;42.812;74.628;2023-05-08T05:31:43;24.60;62.20
35746;DHT22;21870;42.812;74.628;2023-05-08T05:34:09;24.60;63.00
35746;DHT22;21870;42.812;74.628;2023-05-08T05:36:36;24.50;63.10
35746;DHT22;21870;42.812;74.628;2023-05-08T05:39:02;24.60;63.10
35746;DHT22;21870;42.812;74.628;2023-05-08T05:41:28;24.70;63.10
35746;DHT22;21870;42.812;74.628;2023-05-08T05:43:54;24.80;63.20
35746;DHT22;21870;42.812;74.628;2023-05-08T05:46:20;24.90;63.70
35746;DHT22;21870;42.812;74.628;2023-05-08T05:48:46;24.90;61.90
35746;DHT22;21870;42.812;74.628;2023-05-08T05:51:12;24.80;62.00
35746;DHT22;21870;42.812;74.628;2023-05-08T05:53:38;25.00;64.30
35746;DHT22;21870;42.812;74.628;2023-05-08T05:56:05;25.10;62.80
35746;DHT22;21870;42.812;74.628;2023-05-08T05:58:31;25.20;64.50
35746;DHT22;21870;42.812;74.628;2023-05-08T06:00:57;25.30;62.60
35746;DHT22;21870;42.812;74.628;2023-05-08T06:03:25;25.30;60.80
35746;DHT22;21870;42.812;74.628;2023-05-08T06:05:52;25.20;60.40
35746;DHT22;21870;42.812;74.628;2023-05-08T06:08:18;25.10;60.70
35746;DHT22;21870;42.812;74.628;2023-05-08T06:10:44;25.10;62.60
35746;DHT22;21870;42.812;74.628;2023-05-08T06:13:10;25.20;62.90
35746;DHT22;21870;42.812;74.628;2023-05-08T06:15:36;25.30;62.80
35746;DHT22;21870;42.812;74.628;2023-05-08T06:18:02;25.30;61.20
35746;DHT22;21870;42.812;74.628;2023-05-08T06:20:28;25.40;61.20
35746;DHT22;21870;42.812;74.628;2023-05-08T06:22:54;25.50;60.60
35746;DHT22;21870;42.812;74.628;2023-05-08T06:25:20;25.40;59.30
35746;DHT22;21870;42.812;74.628;2023-05-08T06:27:46;25.50;59.50
35746;DHT22;21870;42.812;74.628;2023-05-08T06:30:13;25.70;61.30
35746;DHT22;21870;42.812;74.628;2023-05-08T06:32:39;25.60;60.70
35746;DHT22;21870;42.812;74.628;2023-05-08T06:35:05;25.80;60.70
35746;DHT22;21870;42.812;74.628;2023-05-08T06:37:31;26.10;63.70
35746;DHT22;21870;42.812;74.628;2023-05-08T06:39:57;26.20;63.80
35746;DHT22;21870;42.812;74.628;2023-05-08T06:42:23;26.20;58.60
35746;DHT22;21870;42.812;74.628;2023-05-08T06:44:50;26.10;57.80
35746;DHT22;21870;42.812;74.628;2023-05-08T06:47:18;26.30;60.60
35746;DHT22;21870;42.812;74.628;2023-05-08T06:49:45;26.40;60.60
35746;DHT22;21870;42.812;74.628;2023-05-08T06:52:11;26.40;58.70
35746;DHT22;21870;42.812;74.628;2023-05-08T06:54:37;26.40;59.90
35746;DHT22;21870;42.812;74.628;2023-05-08T06:57:03;26.50;58.90
35746;DHT22;21870;42.812;74.628;2023-05-08T06:59:29;26.50;60.20
35746;DHT22;21870;42.812;74.628;2023-05-08T07:01:55;26.70;61.00
35746;DHT22;21870;42.812;74.628;2023-05-08T07:04:21;26.30;59.50
35746;DHT22;21870;42.812;74.628;2023-05-08T07:06:47;26.10;60.70
35746;DHT22;21870;42.812;74.628;2023-05-08T07:09:13;26.00;58.90
35746;DHT22;21870;42.812;74.628;2023-05-08T07:11:40;26.00;59.50
35746;DHT22;21870;42.812;74.628;2023-05-08T07:14:07;26.30;62.00
35746;DHT22;21870;42.812;74.628;2023-05-08T07:16:33;26.40;60.40
35746;DHT22;21870;42.812;74.628;2023-05-08T07:18:59;26.60;59.90
35746;DHT22;21870;42.812;74.628;2023-05-08T07:21:25;26.60;59.40
35746;DHT22;21870;42.812;74.628;2023-05-08T07:23:52;26.50;58.30
35746;DHT22;21870;42.812;74.628;2023-05-08T07:26:19;26.50;58.80
35746;DHT22;21870;42.812;74.628;2023-05-08T07:28:46;26.40;58.50
35746;DHT22;21870;42.812;74.628;2023-05-08T07:31:12;26.50;59.50
35746;DHT22;21870;42.812;74.628;2023-05-08T07:33:38;26.70;59.60
35746;DHT22;21870;42.812;74.628;2023-05-08T07:36:05;26.70;59.80
35746;DHT22;21870;42.812;74.628;2023-05-08T07:38:31;26.80;61.10
35746;DHT22;21870;42.812;74.628;2023-05-08T07:40:57;26.80;60.40
35746;DHT22;21870;42.812;74.628;2023-05-08T07:43:26;26.70;59.40
35746;DHT22;21870;42.812;74.628;2023-05-08T07:45:52;26.60;59.90
35746;DHT22;21870;42.812;74.628;2023-05-08T07:48:18;26.50;59.70
35746;DHT22;21870;42.812;74.628;2023-05-08T07:50:44;26.80;60.10
35746;DHT22;21870;42.812;74.628;2023-05-08T07:53:10;26.90;60.00
35746;DHT22;21870;42.812;74.628;2023-05-08T07:55:39;26.90;59.10
35746;DHT22;21870;42.812;74.628;2023-05-08T07:58:06;27.20;60.80
35746;DHT22;21870;42.812;74.628;2023-05-08T08:00:32;27.20;58.30
35746;DHT22;21870;42.812;74.628;2023-05-08T08:02:58;27.10;59.00
35746;DHT22;21870;42.812;74.628;2023-05-08T08:05:24;27.30;58.50
35746;DHT22;21870;42.812;74.628;2023-05-08T08:07:50;27.50;59.10
35746;DHT22;21870;42.812;74.628;2023-05-08T08:10:16;27.70;58.70
35746;DHT22;21870;42.812;74.628;2023-05-08T08:12:42;27.70;59.30
35746;DHT22;21870;42.812;74.628;2023-05-08T08:15:09;27.60;57.50
35746;DHT22;21870;42.812;74.628;2023-05-08T08:17:35;27.60;56.90
35746;DHT22;21870;42.812;74.628;2023-05-08T08:20:02;27.30;56.90
35746;DHT22;21870;42.812;74.628;2023-05-08T08:22:29;27.10;56.50
35746;DHT22;21870;42.812;74.628;2023-05-08T08:24:55;27.10;57.50
35746;DHT22;21870;42.812;74.628;2023-05-08T08:27:21;26.90;56.50
35746;DHT22;21870;42.812;74.628;2023-05-08T08:29:47;26.50;56.00
35746;DHT22;21870;42.812;74.628;2023-05-08T08:32:14;26.40;56.30
35746;DHT22;21870;42.812;74.628;2023-05-08T08:34:40;26.40;57.20
35746;DHT22;21870;42.812;74.628;2023-05-08T08:37:06;26.50;57.90
35746;DHT22;21870;42.812;74.628;2023-05-08T08:39:35;26.60;58.20
35746;DHT22;21870;42.812;74.628;2023-05-08T08:42:02;26.60;57.50
35746;DHT22;21870;42.812;74.628;2023-05-08T08:44:29;26.80;58.90
35746;DHT22;21870;42.812;74.628;2023-05-08T08:46:57;26.90;57.40
35746;DHT22;21870;42.812;74.628;2023-05-08T08:49:34;27.10;60.00
35746;DHT22;21870;42.812;74.628;2023-05-08T08:52:14;27.20;59.30
35746;DHT22;21870;42.812;74.628;2023-05-08T08:54:46;27.40;60.10
35746;DHT22;21870;42.812;74.628;2023-05-08T08:57:14;27.50;59.80
35746;DHT22;21870;42.812;74.628;2023-05-08T08:59:41;27.30;57.90
35746;DHT22;21870;42.812;74.628;2023-05-08T09:02:10;27.00;58.50
35746;DHT22;21870;42.812;74.628;2023-05-08T09:04:37;27.00;57.30
35746;DHT22;21870;42.812;74.628;2023-05-08T09:07:04;26.90;56.30
35746;DHT22;21870;42.812;74.628;2023-05-08T09:09:32;26.60;56.70
35746;DHT22;21870;42.812;74.628;2023-05-08T09:12:02;26.70;58.00
35746;DHT22;21870;42.812;74.628;2023-05-08T09:14:28;26.70;57.90
35746;DHT22;21870;42.812;74.628;2023-05-08T09:16:54;26.90;60.60
35746;DHT22;21870;42.812;74.628;2023-05-08T09:19:25;27.20;60.20
35746;DHT22;21870;42.812;74.628;2023-05-08T09:21:51;27.40;59.90
35746;DHT22;21870;42.812;74.628;2023-05-08T09:24:17;27.40;58.00
35746;DHT22;21870;42.812;74.628;2023-05-08T09:26:43;27.30;57.40
35746;DHT22;21870;42.812;74.628;2023-05-08T09:29:17;27.30;57.70
35746;DHT22;21870;42.812;74.628;2023-05-08T09:31:51;27.30;58.70
35746;DHT22;21870;42.812;74.628;2023-05-08T09:34:28;27.40;58.60
35746;DHT22;21870;42.812;74.628;2023-05-08T09:37:15;27.60;58.00
35746;DHT22;21870;42.812;74.628;2023-05-08T09:39:41;27.70;58.30
35746;DHT22;21870;42.812;74.628;2023-05-08T09:42:08;27.60;58.20
35746;DHT22;21870;42.812;74.628;2023-05-08T09:44:49;27.70;57.80
35746;DHT22;21870;42.812;74.628;2023-05-08T09:47:20;27.70;57.10
35746;DHT22;21870;42.812;74.628;2023-05-08T09:49:56;27.50;56.80
35746;DHT22;21870;42.812;74.628;2023-05-08T09:52:23;27.20;57.70
35746;DHT22;21870;42.812;74.628;2023-05-08T09:55:09;27.30;57.10
35746;DHT22;21870;42.812;74.628;2023-05-08T09:57:37;27.10;56.10
35746;DHT22;21870;42.812;74.628;2023-05-08T10:00:05;26.90;56.10
35746;DHT22;21870;42.812;74.628;2023-05-08T10:02:34;27.00;57.20
35746;DHT22;21870;42.812;74.628;2023-05-08T10:05:00;27.10;56.80
35746;DHT22;21870;42.812;74.628;2023-05-08T10:07:32;27.10;56.90
35746;DHT22;21870;42.812;74.628;2023-05-08T10:10:05;26.90;56.00
35746;DHT22;21870;42.812;74.628;2023-05-08T10:12:32;26.90;57.30
35746;DHT22;21870;42.812;74.628;2023-05-08T10:14:58;26.80;57.70
35746;DHT22;21870;42.812;74.628;2023-05-08T10:17:37;26.70;57.90
35746;DHT22;21870;42.812;74.628;2023-05-08T10:20:06;26.80;57.10
35746;DHT22;21870;42.812;74.628;2023-05-08T10:22:36;27.00;57.30
35746;DHT22;21870;42.812;74.628;2023-05-08T10:25:03;26.90;56.90
35746;DHT22;21870;42.812;74.628;2023-05-08T10:30:12;26.60;58.40
35746;DHT22;21870;42.812;74.628;2023-05-08T10:32:43;26.60;58.70
35746;DHT22;21870;42.812;74.628;2023-05-08T10:35:11;26.50;59.30
35746;DHT22;21870;42.812;74.628;2023-05-08T10:37:38;26.40;58.40
35746;DHT22;21870;42.812;74.628;2023-05-08T10:40:07;26.30;57.30
35746;DHT22;21870;42.812;74.628;2023-05-08T10:42:35;26.30;57.30
35746;DHT22;21870;42.812;74.628;2023-05-08T10:45:03;26.30;57.70
35746;DHT22;21870;42.812;74.628;2023-05-08T10:48:02;26.40;57.90
35746;DHT22;21870;42.812;74.628;2023-05-08T10:50:43;26.40;57.70
35746;DHT22;21870;42.812;74.628;2023-05-08T10:53:24;26.30;58.10
35746;DHT22;21870;42.812;74.628;2023-05-08T10:55:54;26.20;57.00
35746;DHT22;21870;42.812;74.628;2023-05-08T10:58:30;26.40;58.00
35746;DHT22;21870;42.812;74.628;2023-05-08T11:03:27;26.50;59.10
35746;DHT22;21870;42.812;74.628;2023-05-08T11:05:54;26.50;59.70
35746;DHT22;21870;42.812;74.628;2023-05-08T11:08:25;26.40;58.90
35746;DHT22;21870;42.812;74.628;2023-05-08T11:13:29;26.10;58.00
35746;DHT22;21870;42.812;74.628;2023-05-08T11:15:57;26.00;57.40
35746;DHT22;21870;42.812;74.628;2023-05-08T11:18:23;25.80;57.40
35746;DHT22;21870;42.812;74.628;2023-05-08T11:21:03;25.70;57.80
35746;DHT22;21870;42.812;74.628;2023-05-08T11:23:32;25.80;58.00
35746;DHT22;21870;42.812;74.628;2023-05-08T11:26:04;25.80;58.10
35746;DHT22;21870;42.812;74.628;2023-05-08T11:28:32;25.80;58.60
35746;DHT22;21870;42.812;74.628;2023-05-08T11:31:03;25.80;58.90
35746;DHT22;21870;42.812;74.628;2023-05-08T11:33:33;25.80;59.40
35746;DHT22;21870;42.812;74.628;2023-05-08T11:36:19;25.50;59.50
35746;DHT22;21870;42.812;74.628;2023-05-08T11:39:09;25.50;60.00
35746;DHT22;21870;42.812;74.628;2023-05-08T11:41:43;25.10;60.30
35746;DHT22;21870;42.812;74.628;2023-05-08T11:44:19;25.10;61.20
35746;DHT22;21870;42.812;74.628;2023-05-08T11:46:54;25.10;61.40
35746;DHT22;21870;42.812;74.628;2023-05-08T11:49:22;25.00;61.00
35746;DHT22;21870;42.812;74.628;2023-05-08T11:51:50;25.00;62.70
35746;DHT22;21870;42.812;74.628;2023-05-08T11:54:21;25.00;61.00
35746;DHT22;21870;42.812;74.628;2023-05-08T11:56:53;25.00;60.90
35746;DHT22;21870;42.812;74.628;2023-05-08T11:59:19;24.90;61.40
35746;DHT22;21870;42.812;74.628;2023-05-08T12:01:50;24.70;61.50
35746;DHT22;21870;42.812;74.628;2023-05-08T12:04:17;24.60;61.20
35746;DHT22;21870;42.812;74.628;2023-05-08T12:06:43;24.60;60.40
35746;DHT22;21870;42.812;74.628;2023-05-08T12:09:16;24.60;60.80
35746;DHT22;21870;42.812;74.628;2023-05-08T12:11:44;24.50;61.30
35746;DHT22;21870;42.812;74.628;2023-05-08T12:14:11;24.50;61.30
35746;DHT22;21870;42.812;74.628;2023-05-08T12:16:38;24.50;61.00
35746;DHT22;21870;42.812;74.628;2023-05-08T12:19:12;24.40;61.60
35746;DHT22;21870;42.812;74.628;2023-05-08T12:21:45;24.30;60.90
35746;DHT22;21870;42.812;74.628;2023-05-08T12:24:14;24.30;62.60
35746;DHT22;21870;42.812;74.628;2023-05-08T12:26:41;24.20;62.10
35746;DHT22;21870;42.812;74.628;2023-05-08T12:29:07;24.10;62.00
35746;DHT22;21870;42.812;74.628;2023-05-08T12:31:34;24.10;62.60
35746;DHT22;21870;42.812;74.628;2023-05-08T12:34:05;23.90;61.30
35746;DHT22;21870;42.812;74.628;2023-05-08T12:36:35;23.80;61.40
35746;DHT22;21870;42.812;74.628;2023-05-08T12:39:19;23.70;61.60
35746;DHT22;21870;42.812;74.628;2023-05-08T12:41:49;23.60;62.00
35746;DHT22;21870;42.812;74.628;2023-05-08T12:44:23;23.60;62.40
35746;DHT22;21870;42.812;74.628;2023-05-08T12:46:54;23.60;62.40
35746;DHT22;21870;42.812;74.628;2023-05-08T12:49:29;23.60;63.00
35746;DHT22;21870;42.812;74.628;2023-05-08T12:52:10;23.50;63.10
35746;DHT22;21870;42.812;74.628;2023-05-08T12:54:45;23.50;62.50
35746;DHT22;21870;42.812;74.628;2023-05-08T12:57:17;23.30;63.40
35746;DHT22;21870;42.812;74.628;2023-05-08T12:59:45;23.20;63.40
35746;DHT22;21870;42.812;74.628;2023-05-08T13:02:16;23.20;63.10
35746;DHT22;21870;42.812;74.628;2023-05-08T13:04:43;23.10;63.80
35746;DHT22;21870;42.812;74.628;2023-05-08T13:07:10;23.00;62.50
35746;DHT22;21870;42.812;74.628;2023-05-08T13:09:36;23.00;62.70
35746;DHT22;21870;42.812;74.628;2023-05-08T13:12:03;22.90;63.20
35746;DHT22;21870;42.812;74.628;2023-05-08T13:14:30;22.80;64.00
35746;DHT22;21870;42.812;74.628;2023-05-08T13:16:56;22.80;63.40
35746;DHT22;21870;42.812;74.628;2023-05-08T13:19:22;22.70;63.50
35746;DHT22;21870;42.812;74.628;2023-05-08T13:21:48;22.70;64.00
35746;DHT22;21870;42.812;74.628;2023-05-08T13:24:14;22.70;64.30
35746;DHT22;21870;42.812;74.628;2023-05-08T13:26:41;22.60;65.00
35746;DHT22;21870;42.812;74.628;2023-05-08T13:29:07;22.60;65.10
35746;DHT22;21870;42.812;74.628;2023-05-08T13:31:33;22.50;65.40
35746;DHT22;21870;42.812;74.628;2023-05-08T13:33:59;22.40;65.90
35746;DHT22;21870;42.812;74.628;2023-05-08T13:36:25;22.30;64.10
35746;DHT22;21870;42.812;74.628;2023-05-08T13:38:52;22.20;63.80
35746;DHT22;21870;42.812;74.628;2023-05-08T13:41:19;22.20;64.30
35746;DHT22;21870;42.812;74.628;2023-05-08T13:43:46;22.10;64.50
35746;DHT22;21870;42.812;74.628;2023-05-08T13:46:12;22.00;65.70
35746;DHT22;21870;42.812;74.628;2023-05-08T13:48:38;21.90;65.80
35746;DHT22;21870;42.812;74.628;2023-05-08T13:51:04;21.90;66.90
35746;DHT22;21870;42.812;74.628;2023-05-08T13:53:30;21.80;68.60
35746;DHT22;21870;42.812;74.628;2023-05-08T13:55:56;21.60;70.00
35746;DHT22;21870;42.812;74.628;2023-05-08T13:58:23;21.50;72.20
35746;DHT22;21870;42.812;74.628;2023-05-08T14:00:49;21.40;72.60
35746;DHT22;21870;42.812;74.628;2023-05-08T14:03:15;21.30;70.70
35746;DHT22;21870;42.812;74.628;2023-05-08T14:05:41;21.10;71.10
35746;DHT22;21870;42.812;74.628;2023-05-08T14:08:07;21.00;71.80
35746;DHT22;21870;42.812;74.628;2023-05-08T14:10:33;20.90;72.00
35746;DHT22;21870;42.812;74.628;2023-05-08T14:12:59;20.80;72.40
35746;DHT22;21870;42.812;74.628;2023-05-08T14:15:25;20.60;72.70
35746;DHT22;21870;42.812;74.628;2023-05-08T14:17:51;20.30;73.60
35746;DHT22;21870;42.812;74.628;2023-05-08T14:20:17;20.20;74.00
35746;DHT22;21870;42.812;74.628;2023-05-08T14:22:43;20.00;74.70
35746;DHT22;21870;42.812;74.628;2023-05-08T14:25:09;19.80;75.20
35746;DHT22;21870;42.812;74.628;2023-05-08T14:27:36;19.70;75.60
35746;DHT22;21870;42.812;74.628;2023-05-08T14:30:02;19.70;75.70
35746;DHT22;21870;42.812;74.628;2023-05-08T14:32:28;19.60;75.90
35746;DHT22;21870;42.812;74.628;2023-05-08T14:34:54;19.40;76.20
35746;DHT22;21870;42.812;74.628;2023-05-08T14:37:20;19.30;76.20
35746;DHT22;21870;42.812;74.628;2023-05-08T14:39:46;19.10;76.50
35746;DHT22;21870;42.812;74.628;2023-05-08T14:42:12;18.90;76.80
35746;DHT22;21870;42.812;74.628;2023-05-08T14:44:38;18.80;77.20
35746;DHT22;21870;42.812;74.628;2023-05-08T14:47:04;18.70;77.40
35746;DHT22;21870;42.812;74.628;2023-05-08T14:49:31;18.60;77.50
35746;DHT22;21870;42.812;74.628;2023-05-08T14:51:57;18.50;77.70
35746;DHT22;21870;42.812;74.628;2023-05-08T14:54:23;18.40;78.00
35746;DHT22;21870;42.812;74.628;2023-05-08T14:56:49;18.10;78.30
35746;DHT22;21870;42.812;74.628;2023-05-08T14:59:15;17.80;78.70
35746;DHT22;21870;42.812;74.628;2023-05-08T15:01:41;17.60;79.10
35746;DHT22;21870;42.812;74.628;2023-05-08T15:04:09;17.60;79.80
35746;DHT22;21870;42.812;74.628;2023-05-08T15:06:35;17.70;80.20
35746;DHT22;21870;42.812;74.628;2023-05-08T15:09:07;17.60;80.60
35746;DHT22;21870;42.812;74.628;2023-05-08T15:11:35;17.60;80.90
35746;DHT22;21870;42.812;74.628;2023-05-08T15:14:02;17.50;81.30
35746;DHT22;21870;42.812;74.628;2023-05-08T15:16:29;17.40;81.40
35746;DHT22;21870;42.812;74.628;2023-05-08T15:18:55;17.40;81.40
35746;DHT22;21870;42.812;74.628;2023-05-08T15:21:21;17.30;82.30
35746;DHT22;21870;42.812;74.628;2023-05-08T15:23:52;17.20;81.60
35746;DHT22;21870;42.812;74.628;2023-05-08T15:26:18;17.20;81.40
35746;DHT22;21870;42.812;74.628;2023-05-08T15:28:44;17.10;81.50
35746;DHT22;21870;42.812;74.628;2023-05-08T15:31:10;17.10;81.50
35746;DHT22;21870;42.812;74.628;2023-05-08T15:33:36;17.00;81.60
35746;DHT22;21870;42.812;74.628;2023-05-08T15:36:03;17.00;81.70
35746;DHT22;21870;42.812;74.628;2023-05-08T15:38:29;17.00;81.70
35746;DHT22;21870;42.812;74.628;2023-05-08T15:40:55;16.90;81.40
35746;DHT22;21870;42.812;74.628;2023-05-08T15:43:21;16.90;81.40
35746;DHT22;21870;42.812;74.628;2023-05-08T15:45:47;16.90;81.50
35746;DHT22;21870;42.812;74.628;2023-05-08T15:48:13;16.90;82.30
35746;DHT22;21870;42.812;74.628;2023-05-08T15:50:40;16.90;81.50
35746;DHT22;21870;42.812;74.628;2023-05-08T15:53:06;16.90;81.50
35746;DHT22;21870;42.812;74.628;2023-05-08T15:55:32;16.90;81.30
35746;DHT22;21870;42.812;74.628;2023-05-08T15:57:58;16.80;80.90